sensor_id;sensor_type;location;lat;lon;timestamp;temperature;humidity
33739;DHT22;20063;51.730;11.110;2023-02-15T00:01:35;2.30;99.90
33739;DHT22;20063;51.730;11.110;2023-02-15T00:04:01;2.20;99.90
33739;DHT22;20063;51.730;11.110;2023-02-15T00:06:27;2.20;99.90
33739;DHT22;20063;51.730;11.110;2023-02-15T00:08:54;2.20;99.90
33739;DHT22;20063;51.730;11.110;2023-02-15T00:11:20;2.20;99.90
33739;DHT22;20063;51.730;11.110;2023-02-15T00:14:18;2.20;99.90
33739;DHT22;20063;51.730;11.110;2023-02-15T00:16:45;2.20;99.90
33739;DHT22;20063;51.730;11.110;2023-02-15T00:19:12;2.20;99.90
33739;DHT22;20063;51.730;11.110;2023-02-15T00:21:38;2.10;99.90
33739;DHT22;20063;51.730;11.110;2023-02-15T00:24:07;2.20;99.90
33739;DHT22;20063;51.730;11.110;2023-02-15T00:26:35;2.20;99.90
33739;DHT22;20063;51.730;11.110;2023-02-15T00:29:01;2.20;99.90
33739;DHT22;20063;51.730;11.110;2023-02-15T00:31:28;2.10;99.90
33739;DHT22;20063;51.730;11.110;2023-02-15T00:34:00;2.10;99.90
33739;DHT22;20063;51.730;11.110;2023-02-15T00:36:26;2.10;99.90
33739;DHT22;20063;51.730;11.110;2023-02-15T00:38:51;2.10;99.90
33739;DHT22;20063;51.730;11.110;2023-02-15T00:41:17;2.10;99.90
33739;DHT22;20063;51.730;11.110;2023-02-15T00:43:42;2.20;99.90
33739;DHT22;20063;51.730;11.110;2023-02-15T00:46:08;2.20;99.90
33739;DHT22;20063;51.730;11.110;2023-02-15T00:48:33;2.20;99.90
33739;DHT22;20063;51.730;11.110;2023-02-15T00:51:00;2.10;99.90
33739;DHT22;20063;51.730;11.110;2023-02-15T00:53:26;2.10;99.90
33739;DHT22;20063;51.730;11.110;2023-02-15T00:55:52;2.20;99.90
33739;DHT22;20063;51.730;11.110;2023-02-15T00:58:18;2.00;99.90
33739;DHT22;20063;51.730;11.110;2023-02-15T01:00:45;2.00;99.90
33739;DHT22;20063;51.730;11.110;2023-02-15T01:03:12;2.00;99.90
33739;DHT22;20063;51.730;11.110;2023-02-15T01:05:38;2.00;99.90
33739;DHT22;20063;51.730;11.110;2023-02-15T01:08:04;1.90;99.90
33739;DHT22;20063;51.730;11.110;2023-02-15T01:10:30;2.00;99.90
33739;DHT22;20063;51.730;11.110;2023-02-15T01:12:56;2.10;99.90
33739;DHT22;20063;51.730;11.110;2023-02-15T01:15:22;2.10;99.90
33739;DHT22;20063;51.730;11.110;2023-02-15T01:17:48;2.10;99.90
33739;DHT22;20063;51.730;11.110;2023-02-15T01:20:19;2.00;99.90
33739;DHT22;20063;51.730;11.110;2023-02-15T01:22:47;2.00;99.90
33739;DHT22;20063;51.730;11.110;2023-02-15T01:25:16;1.90;99.90
33739;DHT22;20063;51.730;11.110;2023-02-15T01:27:41;1.90;99.90
33739;DHT22;20063;51.730;11.110;2023-02-15T01:30:07;1.90;99.90
33739;DHT22;20063;51.730;11.110;2023-02-15T01:32:34;1.90;99.90
33739;DHT22;20063;51.730;11.110;2023-02-15T01:35:02;1.90;99.90
33739;DHT22;20063;51.730;11.110;2023-02-15T01:37:30;1.90;99.90
33739;DHT22;20063;51.730;11.110;2023-02-15T01:39:57;1.90;99.90
33739;DHT22;20063;51.730;11.110;2023-02-15T01:42:24;1.90;99.90
33739;DHT22;20063;51.730;11.110;2023-02-15T01:47:40;2.00;99.90
33739;DHT22;20063;51.730;11.110;2023-02-15T01:52:37;2.00;99.90
33739;DHT22;20063;51.730;11.110;2023-02-15T01:55:06;2.10;99.90
33739;DHT22;20063;51.730;11.110;2023-02-15T01:57:33;2.10;99.90
33739;DHT22;20063;51.730;11.110;2023-02-15T02:00:01;2.00;99.90
33739;DHT22;20063;51.730;11.110;2023-02-15T02:02:28;2.00;99.90
33739;DHT22;20063;51.730;11.110;2023-02-15T02:05:00;2.00;99.90
33739;DHT22;20063;51.730;11.110;2023-02-15T02:07:30;2.00;99.90
33739;DHT22;20063;51.730;11.110;2023-02-15T02:09:57;2.00;99.90
33739;DHT22;20063;51.730;11.110;2023-02-15T02:12:24;2.10;99.90
33739;DHT22;20063;51.730;11.110;2023-02-15T02:14:50;2.10;99.90
33739;DHT22;20063;51.730;11.110;2023-02-15T02:17:22;2.10;99.90
33739;DHT22;20063;51.730;11.110;2023-02-15T02:20:29;2.10;99.90
33739;DHT22;20063;51.730;11.110;2023-02-15T02:25:53;2.10;99.90
33739;DHT22;20063;51.730;11.110;2023-02-15T02:31:23;2.10;99.90
33739;DHT22;20063;51.730;11.110;2023-02-15T02:36:54;2.00;99.90
33739;DHT22;20063;51.730;11.110;2023-02-15T02:44:54;1.90;99.90
33739;DHT22;20063;51.730;11.110;2023-02-15T02:49:59;1.90;99.90
33739;DHT22;20063;51.730;11.110;2023-02-15T02:52:44;1.90;99.90
33739;DHT22;20063;51.730;11.110;2023-02-15T02:55:34;1.90;99.90
33739;DHT22;20063;51.730;11.110;2023-02-15T02:58:29;1.90;99.90
33739;DHT22;20063;51.730;11.110;2023-02-15T03:01:07;2.00;99.90
33739;DHT22;20063;51.730;11.110;2023-02-15T03:03:57;2.00;99.90
33739;DHT22;20063;51.730;11.110;2023-02-15T03:07:06;2.00;99.90
33739;DHT22;20063;51.730;11.110;2023-02-15T03:09:38;2.00;99.90
33739;DHT22;20063;51.730;11.110;2023-02-15T03:12:16;1.90;99.90
33739;DHT22;20063;51.730;11.110;2023-02-15T03:14:46;1.90;99.90
33739;DHT22;20063;51.730;11.110;2023-02-15T03:17:14;1.90;99.90
33739;DHT22;20063;51.730;11.110;2023-02-15T03:19:44;1.80;99.90
33739;DHT22;20063;51.730;11.110;2023-02-15T03:22:20;1.80;99.90
33739;DHT22;20063;51.730;11.110;2023-02-15T03:24:49;1.80;99.90
33739;DHT22;20063;51.730;11.110;2023-02-15T03:27:31;1.70;99.90
33739;DHT22;20063;51.730;11.110;2023-02-15T03:30:01;1.80;99.90
33739;DHT22;20063;51.730;11.110;2023-02-15T03:32:28;1.70;99.90
33739;DHT22;20063;51.730;11.110;2023-02-15T03:34:55;1.70;99.90
33739;DHT22;20063;51.730;11.110;2023-02-15T03:40:26;1.60;99.90
33739;DHT22;20063;51.730;11.110;2023-02-15T03:43:48;1.60;99.90
33739;DHT22;20063;51.730;11.110;2023-02-15T03:51:50;1.60;99.90
33739;DHT22;20063;51.730;11.110;2023-02-15T03:54:27;1.70;99.90
33739;DHT22;20063;51.730;11.110;2023-02-15T03:59:59;1.80;99.90
33739;DHT22;20063;51.730;11.110;2023-02-15T04:03:08;1.80;99.90
33739;DHT22;20063;51.730;11.110;2023-02-15T04:05:34;1.80;99.90
33739;DHT22;20063;51.730;11.110;2023-02-15T04:08:00;1.70;99.90
33739;DHT22;20063;51.730;11.110;2023-02-15T04:10:26;1.70;99.90
33739;DHT22;20063;51.730;11.110;2023-02-15T04:13:10;1.70;99.90
33739;DHT22;20063;51.730;11.110;2023-02-15T04:15:35;1.60;99.90
33739;DHT22;20063;51.730;11.110;2023-02-15T04:18:19;1.60;99.90
33739;DHT22;20063;51.730;11.110;2023-02-15T04:20:46;1.60;99.90
33739;DHT22;20063;51.730;11.110;2023-02-15T04:23:33;1.50;99.90
33739;DHT22;20063;51.730;11.110;2023-02-15T04:26:17;1.50;99.90
33739;DHT22;20063;51.730;11.110;2023-02-15T04:28:42;1.50;99.90
33739;DHT22;20063;51.730;11.110;2023-02-15T04:31:08;1.60;99.90
33739;DHT22;20063;51.730;11.110;2023-02-15T04:33:33;1.60;99.90
33739;DHT22;20063;51.730;11.110;2023-02-15T04:36:01;1.50;99.90
33739;DHT22;20063;51.730;11.110;2023-02-15T04:38:27;1.50;99.90
33739;DHT22;20063;51.730;11.110;2023-02-15T04:40:52;1.50;99.90
33739;DHT22;20063;51.730;11.110;2023-02-15T04:43:19;1.40;99.90
33739;DHT22;20063;51.730;11.110;2023-02-15T04:45:49;1.40;99.90
33739;DHT22;20063;51.730;11.110;2023-02-15T04:48:16;1.40;99.90
33739;DHT22;20063;51.730;11.110;2023-02-15T04:50:42;1.40;99.90
33739;DHT22;20063;51.730;11.110;2023-02-15T04:53:07;1.30;99.90
33739;DHT22;20063;51.730;11.110;2023-02-15T04:55:33;1.30;99.90
33739;DHT22;20063;51.730;11.110;2023-02-15T04:57:58;1.30;99.90
33739;DHT22;20063;51.730;11.110;2023-02-15T05:00:24;1.30;99.90
33739;DHT22;20063;51.730;11.110;2023-02-15T05:02:50;1.20;99.90
33739;DHT22;20063;51.730;11.110;2023-02-15T05:05:15;1.20;99.90
33739;DHT22;20063;51.730;11.110;2023-02-15T05:07:41;1.20;99.90
33739;DHT22;20063;51.730;11.110;2023-02-15T05:10:07;1.20;99.90
33739;DHT22;20063;51.730;11.110;2023-02-15T05:12:32;1.20;99.90
33739;DHT22;20063;51.730;11.110;2023-02-15T05:15:09;1.10;99.90
33739;DHT22;20063;51.730;11.110;2023-02-15T05:17:36;1.10;99.90
33739;DHT22;20063;51.730;11.110;2023-02-15T05:20:02;1.10;99.90
33739;DHT22;20063;51.730;11.110;2023-02-15T05:22:28;1.10;99.90
33739;DHT22;20063;51.730;11.110;2023-02-15T05:24:53;1.00;99.90
33739;DHT22;20063;51.730;11.110;2023-02-15T05:27:37;1.00;99.90
33739;DHT22;20063;51.730;11.110;2023-02-15T05:30:21;1.00;99.90
33739;DHT22;20063;51.730;11.110;2023-02-15T05:32:47;1.00;99.90
33739;DHT22;20063;51.730;11.110;2023-02-15T05:35:14;1.00;99.90
33739;DHT22;20063;51.730;11.110;2023-02-15T05:37:40;1.00;99.90
33739;DHT22;20063;51.730;11.110;2023-02-15T05:40:06;1.00;99.90
33739;DHT22;20063;51.730;11.110;2023-02-15T05:42:32;1.00;99.90
33739;DHT22;20063;51.730;11.110;2023-02-15T05:44:58;1.00;99.90
33739;DHT22;20063;51.730;11.110;2023-02-15T05:47:23;1.10;99.90
33739;DHT22;20063;51.730;11.110;2023-02-15T05:49:49;1.00;99.90
33739;DHT22;20063;51.730;11.110;2023-02-15T05:52:14;1.00;99.90
33739;DHT22;20063;51.730;11.110;2023-02-15T05:54:40;1.00;99.90
33739;DHT22;20063;51.730;11.110;2023-02-15T05:57:05;1.10;99.90
33739;DHT22;20063;51.730;11.110;2023-02-15T05:59:31;1.20;99.90
33739;DHT22;20063;51.730;11.110;2023-02-15T06:01:56;1.10;99.90
33739;DHT22;20063;51.730;11.110;2023-02-15T06:04:22;1.20;99.90
33739;DHT22;20063;51.730;11.110;2023-02-15T06:06:47;1.20;99.90
33739;DHT22;20063;51.730;11.110;2023-02-15T06:09:13;1.10;99.90
33739;DHT22;20063;51.730;11.110;2023-02-15T06:11:39;1.10;99.90
33739;DHT22;20063;51.730;11.110;2023-02-15T06:14:04;1.10;99.90
33739;DHT22;20063;51.730;11.110;2023-02-15T06:16:30;1.10;99.90
33739;DHT22;20063;51.730;11.110;2023-02-15T06:18:55;1.10;99.90
33739;DHT22;20063;51.730;11.110;2023-02-15T06:21:21;1.20;99.90
33739;DHT22;20063;51.730;11.110;2023-02-15T06:23:46;1.10;99.90
33739;DHT22;20063;51.730;11.110;2023-02-15T06:26:16;1.10;99.90
33739;DHT22;20063;51.730;11.110;2023-02-15T06:28:42;1.20;99.90
33739;DHT22;20063;51.730;11.110;2023-02-15T06:31:08;1.20;99.90
33739;DHT22;20063;51.730;11.110;2023-02-15T06:33:33;1.10;99.90
33739;DHT22;20063;51.730;11.110;2023-02-15T06:35:59;1.10;99.90
33739;DHT22;20063;51.730;11.110;2023-02-15T06:38:25;1.10;99.90
33739;DHT22;20063;51.730;11.110;2023-02-15T06:40:50;1.10;99.90
33739;DHT22;20063;51.730;11.110;2023-02-15T06:43:16;1.10;99.90
33739;DHT22;20063;51.730;11.110;2023-02-15T06:45:41;1.10;99.90
33739;DHT22;20063;51.730;11.110;2023-02-15T06:48:07;1.10;99.90
33739;DHT22;20063;51.730;11.110;2023-02-15T06:54:46;1.30;99.90
33739;DHT22;20063;51.730;11.110;2023-02-15T06:57:11;1.30;99.90
33739;DHT22;20063;51.730;11.110;2023-02-15T06:59:37;1.40;99.90
33739;DHT22;20063;51.730;11.110;2023-02-15T07:02:02;1.40;99.90
33739;DHT22;20063;51.730;11.110;2023-02-15T07:04:28;1.40;99.90
33739;DHT22;20063;51.730;11.110;2023-02-15T07:06:55;1.50;99.90
33739;DHT22;20063;51.730;11.110;2023-02-15T07:09:21;1.40;99.90
33739;DHT22;20063;51.730;11.110;2023-02-15T07:15:12;1.50;99.90
33739;DHT22;20063;51.730;11.110;2023-02-15T07:17:38;1.50;99.90
33739;DHT22;20063;51.730;11.110;2023-02-15T07:20:09;1.50;99.90
33739;DHT22;20063;51.730;11.110;2023-02-15T07:22:35;1.50;99.90
33739;DHT22;20063;51.730;11.110;2023-02-15T07:25:03;1.50;99.90
33739;DHT22;20063;51.730;11.110;2023-02-15T07:27:30;1.50;99.90
33739;DHT22;20063;51.730;11.110;2023-02-15T07:29:56;1.50;99.90
33739;DHT22;20063;51.730;11.110;2023-02-15T07:32:22;1.60;99.90
33739;DHT22;20063;51.730;11.110;2023-02-15T07:34:47;1.60;99.90
33739;DHT22;20063;51.730;11.110;2023-02-15T07:37:13;1.60;99.90
33739;DHT22;20063;51.730;11.110;2023-02-15T07:39:38;1.70;99.90
33739;DHT22;20063;51.730;11.110;2023-02-15T07:42:04;1.80;99.90
33739;DHT22;20063;51.730;11.110;2023-02-15T07:44:30;1.80;99.90
33739;DHT22;20063;51.730;11.110;2023-02-15T07:46:55;1.90;99.90
33739;DHT22;20063;51.730;11.110;2023-02-15T07:49:21;1.90;99.90
33739;DHT22;20063;51.730;11.110;2023-02-15T07:51:47;2.00;99.90
33739;DHT22;20063;51.730;11.110;2023-02-15T07:54:12;2.00;99.90
33739;DHT22;20063;51.730;11.110;2023-02-15T07:56:38;2.10;99.90
33739;DHT22;20063;51.730;11.110;2023-02-15T07:59:03;2.20;99.90
33739;DHT22;20063;51.730;11.110;2023-02-15T08:01:34;2.30;99.90
33739;DHT22;20063;51.730;11.110;2023-02-15T08:04:01;2.50;99.90
33739;DHT22;20063;51.730;11.110;2023-02-15T08:06:29;2.50;99.90
33739;DHT22;20063;51.730;11.110;2023-02-15T08:08:56;2.60;99.90
33739;DHT22;20063;51.730;11.110;2023-02-15T08:11:25;2.60;99.90
33739;DHT22;20063;51.730;11.110;2023-02-15T08:16:47;2.90;99.90
33739;DHT22;20063;51.730;11.110;2023-02-15T08:19:31;3.00;99.90
33739;DHT22;20063;51.730;11.110;2023-02-15T08:22:04;3.10;99.90
33739;DHT22;20063;51.730;11.110;2023-02-15T08:24:32;3.30;99.90
33739;DHT22;20063;51.730;11.110;2023-02-15T08:26:58;3.40;99.90
33739;DHT22;20063;51.730;11.110;2023-02-15T08:29:26;3.50;99.90
33739;DHT22;20063;51.730;11.110;2023-02-15T08:32:05;3.70;99.90
33739;DHT22;20063;51.730;11.110;2023-02-15T08:34:33;3.90;99.90
33739;DHT22;20063;51.730;11.110;2023-02-15T08:36:59;4.00;99.90
33739;DHT22;20063;51.730;11.110;2023-02-15T08:39:28;4.10;99.90
33739;DHT22;20063;51.730;11.110;2023-02-15T08:41:54;4.30;99.90
33739;DHT22;20063;51.730;11.110;2023-02-15T08:44:20;4.40;99.90
33739;DHT22;20063;51.730;11.110;2023-02-15T08:46:47;4.50;99.90
33739;DHT22;20063;51.730;11.110;2023-02-15T08:49:19;4.60;99.90
33739;DHT22;20063;51.730;11.110;2023-02-15T08:51:47;4.70;99.90
33739;DHT22;20063;51.730;11.110;2023-02-15T08:54:15;4.80;99.90
33739;DHT22;20063;51.730;11.110;2023-02-15T08:56:42;4.90;99.90
33739;DHT22;20063;51.730;11.110;2023-02-15T08:59:16;5.00;99.90
33739;DHT22;20063;51.730;11.110;2023-02-15T09:01:42;5.10;99.90
33739;DHT22;20063;51.730;11.110;2023-02-15T09:04:08;5.20;99.90
33739;DHT22;20063;51.730;11.110;2023-02-15T09:06:34;5.30;99.90
33739;DHT22;20063;51.730;11.110;2023-02-15T09:09:01;5.40;99.90
33739;DHT22;20063;51.730;11.110;2023-02-15T09:11:30;5.50;99.90
33739;DHT22;20063;51.730;11.110;2023-02-15T09:14:01;5.50;99.90
33739;DHT22;20063;51.730;11.110;2023-02-15T09:16:30;5.60;99.90
33739;DHT22;20063;51.730;11.110;2023-02-15T09:18:57;5.70;99.90
33739;DHT22;20063;51.730;11.110;2023-02-15T09:21:24;5.80;99.90
33739;DHT22;20063;51.730;11.110;2023-02-15T09:23:52;5.90;99.90
33739;DHT22;20063;51.730;11.110;2023-02-15T09:26:22;6.00;99.90
33739;DHT22;20063;51.730;11.110;2023-02-15T09:28:51;6.20;99.90
33739;DHT22;20063;51.730;11.110;2023-02-15T09:31:19;6.40;99.90
33739;DHT22;20063;51.730;11.110;2023-02-15T09:33:47;6.50;99.90
33739;DHT22;20063;51.730;11.110;2023-02-15T09:36:34;6.70;99.90
33739;DHT22;20063;51.730;11.110;2023-02-15T09:39:11;6.90;99.90
33739;DHT22;20063;51.730;11.110;2023-02-15T09:44:33;7.10;99.90
33739;DHT22;20063;51.730;11.110;2023-02-15T09:56:19;7.40;99.90
33739;DHT22;20063;51.730;11.110;2023-02-15T09:59:26;7.40;99.90
33739;DHT22;20063;51.730;11.110;2023-02-15T10:12:39;7.30;99.90
33739;DHT22;20063;51.730;11.110;2023-02-15T10:15:33;7.30;99.90
33739;DHT22;20063;51.730;11.110;2023-02-15T10:24:03;7.40;99.90
33739;DHT22;20063;51.730;11.110;2023-02-15T10:26:48;7.50;99.90
33739;DHT22;20063;51.730;11.110;2023-02-15T10:29:34;7.50;99.90
33739;DHT22;20063;51.730;11.110;2023-02-15T10:32:08;7.50;99.90
33739;DHT22;20063;51.730;11.110;2023-02-15T10:34:54;7.60;99.90
33739;DHT22;20063;51.730;11.110;2023-02-15T10:51:22;8.00;99.90
33739;DHT22;20063;51.730;11.110;2023-02-15T10:53:56;8.20;99.90
33739;DHT22;20063;51.730;11.110;2023-02-15T10:56:36;8.20;99.90
33739;DHT22;20063;51.730;11.110;2023-02-15T10:59:35;8.30;99.90
33739;DHT22;20063;51.730;11.110;2023-02-15T11:07:39;8.50;99.90
33739;DHT22;20063;51.730;11.110;2023-02-15T11:12:50;8.40;99.90
33739;DHT22;20063;51.730;11.110;2023-02-15T11:15:35;8.50;99.90
33739;DHT22;20063;51.730;11.110;2023-02-15T11:18:11;8.50;99.90
33739;DHT22;20063;51.730;11.110;2023-02-15T11:23:17;8.70;99.90
33739;DHT22;20063;51.730;11.110;2023-02-15T11:25:46;8.80;99.90
33739;DHT22;20063;51.730;11.110;2023-02-15T11:28:20;8.80;99.90
33739;DHT22;20063;51.730;11.110;2023-02-15T11:30:51;9.00;99.90
33739;DHT22;20063;51.730;11.110;2023-02-15T11:36:01;9.20;99.90
33739;DHT22;20063;51.730;11.110;2023-02-15T11:38:32;9.60;99.90
33739;DHT22;20063;51.730;11.110;2023-02-15T11:41:22;9.90;99.90
33739;DHT22;20063;51.730;11.110;2023-02-15T11:43:54;10.30;99.90
33739;DHT22;20063;51.730;11.110;2023-02-15T11:46:22;10.60;99.90
33739;DHT22;20063;51.730;11.110;2023-02-15T11:48:48;10.80;99.90
33739;DHT22;20063;51.730;11.110;2023-02-15T11:51:16;11.10;94.10
33739;DHT22;20063;51.730;11.110;2023-02-15T11:53:43;11.30;97.80
33739;DHT22;20063;51.730;11.110;2023-02-15T11:56:30;11.30;99.20
33739;DHT22;20063;51.730;11.110;2023-02-15T11:58:59;11.50;82.90
33739;DHT22;20063;51.730;11.110;2023-02-15T12:06:53;11.90;74.90
33739;DHT22;20063;51.730;11.110;2023-02-15T12:09:33;12.00;79.00
33739;DHT22;20063;51.730;11.110;2023-02-15T12:12:21;12.00;81.40
33739;DHT22;20063;51.730;11.110;2023-02-15T12:14:51;12.10;76.60
33739;DHT22;20063;51.730;11.110;2023-02-15T12:17:20;12.10;75.60
33739;DHT22;20063;51.730;11.110;2023-02-15T12:19:47;12.20;76.50
33739;DHT22;20063;51.730;11.110;2023-02-15T12:22:34;12.30;85.10
33739;DHT22;20063;51.730;11.110;2023-02-15T12:25:11;12.30;76.40
33739;DHT22;20063;51.730;11.110;2023-02-15T12:27:45;12.50;80.60
33739;DHT22;20063;51.730;11.110;2023-02-15T12:30:32;12.60;76.60
33739;DHT22;20063;51.730;11.110;2023-02-15T12:33:17;12.80;74.30
33739;DHT22;20063;51.730;11.110;2023-02-15T12:35:47;12.90;70.10
33739;DHT22;20063;51.730;11.110;2023-02-15T12:38:24;13.00;66.70
33739;DHT22;20063;51.730;11.110;2023-02-15T12:41:03;13.20;65.70
33739;DHT22;20063;51.730;11.110;2023-02-15T12:43:37;13.10;71.70
33739;DHT22;20063;51.730;11.110;2023-02-15T12:48:48;13.40;64.80
33739;DHT22;20063;51.730;11.110;2023-02-15T12:51:51;13.50;64.60
33739;DHT22;20063;51.730;11.110;2023-02-15T12:56:55;13.40;99.90
33739;DHT22;20063;51.730;11.110;2023-02-15T12:59:22;13.10;99.90
33739;DHT22;20063;51.730;11.110;2023-02-15T13:01:49;12.90;99.90
33739;DHT22;20063;51.730;11.110;2023-02-15T13:04:28;12.70;99.90
33739;DHT22;20063;51.730;11.110;2023-02-15T13:07:01;12.50;99.90
33739;DHT22;20063;51.730;11.110;2023-02-15T13:12:26;12.30;99.90
33739;DHT22;20063;51.730;11.110;2023-02-15T13:14:53;12.20;99.90
33739;DHT22;20063;51.730;11.110;2023-02-15T13:17:25;12.10;99.90
33739;DHT22;20063;51.730;11.110;2023-02-15T13:19:56;12.00;99.90
33739;DHT22;20063;51.730;11.110;2023-02-15T13:22:33;12.00;99.90
33739;DHT22;20063;51.730;11.110;2023-02-15T13:25:04;11.90;99.90
33739;DHT22;20063;51.730;11.110;2023-02-15T13:27:40;11.80;99.90
33739;DHT22;20063;51.730;11.110;2023-02-15T13:30:28;11.70;99.90
33739;DHT22;20063;51.730;11.110;2023-02-15T13:33:27;11.60;99.90
33739;DHT22;20063;51.730;11.110;2023-02-15T13:47:05;11.30;99.90
33739;DHT22;20063;51.730;11.110;2023-02-15T13:52:47;11.20;99.90
33739;DHT22;20063;51.730;11.110;2023-02-15T14:08:41;10.90;99.90
33739;DHT22;20063;51.730;11.110;2023-02-15T14:17:03;11.00;99.90
33739;DHT22;20063;51.730;11.110;2023-02-15T14:22:31;11.00;99.90
33739;DHT22;20063;51.730;11.110;2023-02-15T14:30:20;11.00;99.90
33739;DHT22;20063;51.730;11.110;2023-02-15T14:32:50;10.90;99.90
33739;DHT22;20063;51.730;11.110;2023-02-15T14:35:24;10.80;99.90
33739;DHT22;20063;51.730;11.110;2023-02-15T14:38:11;10.70;99.90
33739;DHT22;20063;51.730;11.110;2023-02-15T14:41:02;10.70;99.90
33739;DHT22;20063;51.730;11.110;2023-02-15T14:49:21;10.50;99.90
33739;DHT22;20063;51.730;11.110;2023-02-15T14:56:44;10.40;99.90
33739;DHT22;20063;51.730;11.110;2023-02-15T14:59:18;10.30;99.90
33739;DHT22;20063;51.730;11.110;2023-02-15T15:01:59;10.30;99.90
33739;DHT22;20063;51.730;11.110;2023-02-15T15:04:33;10.30;99.90
33739;DHT22;20063;51.730;11.110;2023-02-15T15:09:41;10.30;99.90
33739;DHT22;20063;51.730;11.110;2023-02-15T15:14:53;10.30;99.90
33739;DHT22;20063;51.730;11.110;2023-02-15T15:22:25;10.20;99.90
33739;DHT22;20063;51.730;11.110;2023-02-15T15:25:00;10.20;99.90
33739;DHT22;20063;51.730;11.110;2023-02-15T15:49:14;9.00;99.90
33739;DHT22;20063;51.730;11.110;2023-02-15T15:51:41;8.80;99.90
33739;DHT22;20063;51.730;11.110;2023-02-15T15:54:20;8.60;99.90
33739;DHT22;20063;51.730;11.110;2023-02-15T15:57:02;8.60;99.90
33739;DHT22;20063;51.730;11.110;2023-02-15T15:59:33;8.50;99.90
33739;DHT22;20063;51.730;11.110;2023-02-15T16:02:09;8.40;99.90
33739;DHT22;20063;51.730;11.110;2023-02-15T16:04:36;8.40;99.90
33739;DHT22;20063;51.730;11.110;2023-02-15T16:07:23;8.20;99.90
33739;DHT22;20063;51.730;11.110;2023-02-15T16:10:07;8.10;99.90
33739;DHT22;20063;51.730;11.110;2023-02-15T16:12:38;7.80;99.90
33739;DHT22;20063;51.730;11.110;2023-02-15T16:15:15;7.70;99.90
33739;DHT22;20063;51.730;11.110;2023-02-15T16:17:57;7.60;99.90
33739;DHT22;20063;51.730;11.110;2023-02-15T16:20:34;7.60;99.90
33739;DHT22;20063;51.730;11.110;2023-02-15T16:23:21;7.60;99.90
33739;DHT22;20063;51.730;11.110;2023-02-15T16:28:30;7.40;99.90
33739;DHT22;20063;51.730;11.110;2023-02-15T16:31:16;7.30;99.90
33739;DHT22;20063;51.730;11.110;2023-02-15T16:33:43;7.20;99.90
33739;DHT22;20063;51.730;11.110;2023-02-15T16:36:23;7.20;99.90
33739;DHT22;20063;51.730;11.110;2023-02-15T16:41:21;7.10;99.90
33739;DHT22;20063;51.730;11.110;2023-02-15T16:43:49;7.00;99.90
33739;DHT22;20063;51.730;11.110;2023-02-15T16:46:24;6.90;99.90
33739;DHT22;20063;51.730;11.110;2023-02-15T16:48:52;6.80;99.90
33739;DHT22;20063;51.730;11.110;2023-02-15T16:51:25;6.60;99.90
33739;DHT22;20063;51.730;11.110;2023-02-15T16:53:52;6.50;99.90
33739;DHT22;20063;51.730;11.110;2023-02-15T16:56:27;6.40;99.90
33739;DHT22;20063;51.730;11.110;2023-02-15T16:58:57;6.30;99.90
33739;DHT22;20063;51.730;11.110;2023-02-15T17:01:26;6.30;99.90
33739;DHT22;20063;51.730;11.110;2023-02-15T17:04:11;6.20;99.90
33739;DHT22;20063;51.730;11.110;2023-02-15T17:06:38;6.10;99.90
33739;DHT22;20063;51.730;11.110;2023-02-15T17:09:14;6.10;99.90
33739;DHT22;20063;51.730;11.110;2023-02-15T17:11:44;6.00;99.90
33739;DHT22;20063;51.730;11.110;2023-02-15T17:14:10;5.90;99.90
33739;DHT22;20063;51.730;11.110;2023-02-15T17:16:45;5.80;99.90
33739;DHT22;20063;51.730;11.110;2023-02-15T17:19:23;5.80;99.90
33739;DHT22;20063;51.730;11.110;2023-02-15T17:22:02;5.70;99.90
33739;DHT22;20063;51.730;11.110;2023-02-15T17:24:35;5.60;99.90
33739;DHT22;20063;51.730;11.110;2023-02-15T17:27:05;5.60;99.90
33739;DHT22;20063;51.730;11.110;2023-02-15T17:29:39;5.50;99.90
33739;DHT22;20063;51.730;11.110;2023-02-15T17:32:15;5.50;99.90
33739;DHT22;20063;51.730;11.110;2023-02-15T17:37:14;5.40;99.90
33739;DHT22;20063;51.730;11.110;2023-02-15T17:39:48;5.40;99.90
33739;DHT22;20063;51.730;11.110;2023-02-15T17:42:13;5.30;99.90
33739;DHT22;20063;51.730;11.110;2023-02-15T17:44:39;5.20;99.90
33739;DHT22;20063;51.730;11.110;2023-02-15T17:47:04;5.20;99.90
33739;DHT22;20063;51.730;11.110;2023-02-15T17:49:30;5.10;99.90
33739;DHT22;20063;51.730;11.110;2023-02-15T17:52:00;5.00;99.90
33739;DHT22;20063;51.730;11.110;2023-02-15T17:54:27;4.90;99.90
33739;DHT22;20063;51.730;11.110;2023-02-15T17:57:28;4.90;99.90
33739;DHT22;20063;51.730;11.110;2023-02-15T17:59:54;4.80;99.90
33739;DHT22;20063;51.730;11.110;2023-02-15T18:02:39;4.70;99.90
33739;DHT22;20063;51.730;11.110;2023-02-15T18:05:23;4.70;99.90
33739;DHT22;20063;51.730;11.110;2023-02-15T18:08:13;4.70;99.90
33739;DHT22;20063;51.730;11.110;2023-02-15T18:10:58;4.70;99.90
33739;DHT22;20063;51.730;11.110;2023-02-15T18:13:42;4.60;99.90
33739;DHT22;20063;51.730;11.110;2023-02-15T18:16:23;4.60;99.90
33739;DHT22;20063;51.730;11.110;2023-02-15T18:18:51;4.50;99.90
33739;DHT22;20063;51.730;11.110;2023-02-15T18:21:17;4.50;99.90
33739;DHT22;20063;51.730;11.110;2023-02-15T18:23:43;4.50;99.90
33739;DHT22;20063;51.730;11.110;2023-02-15T18:26:15;4.50;99.90
33739;DHT22;20063;51.730;11.110;2023-02-15T18:28:41;4.40;99.90
33739;DHT22;20063;51.730;11.110;2023-02-15T18:31:07;4.30;99.90
33739;DHT22;20063;51.730;11.110;2023-02-15T18:33:34;4.30;99.90
33739;DHT22;20063;51.730;11.110;2023-02-15T18:36:04;4.30;99.90
33739;DHT22;20063;51.730;11.110;2023-02-15T18:38:30;4.30;99.90
33739;DHT22;20063;51.730;11.110;2023-02-15T18:40:56;4.30;99.90
33739;DHT22;20063;51.730;11.110;2023-02-15T18:43:22;4.30;99.90
33739;DHT22;20063;51.730;11.110;2023-02-15T18:45:48;4.20;99.90
33739;DHT22;20063;51.730;11.110;2023-02-15T18:48:13;4.20;99.90
33739;DHT22;20063;51.730;11.110;2023-02-15T18:50:39;4.20;99.90
33739;DHT22;20063;51.730;11.110;2023-02-15T18:53:10;4.10;99.90
33739;DHT22;20063;51.730;11.110;2023-02-15T18:55:38;4.10;99.90
33739;DHT22;20063;51.730;11.110;2023-02-15T18:58:03;4.10;99.90
33739;DHT22;20063;51.730;11.110;2023-02-15T19:00:33;4.10;99.90
33739;DHT22;20063;51.730;11.110;2023-02-15T19:03:00;4.10;99.90
33739;DHT22;20063;51.730;11.110;2023-02-15T19:05:27;4.10;99.90
33739;DHT22;20063;51.730;11.110;2023-02-15T19:07:54;4.10;99.90
33739;DHT22;20063;51.730;11.110;2023-02-15T19:10:22;4.10;99.90
33739;DHT22;20063;51.730;11.110;2023-02-15T19:12:49;4.10;99.90
33739;DHT22;20063;51.730;11.110;2023-02-15T19:15:16;4.20;99.90
33739;DHT22;20063;51.730;11.110;2023-02-15T19:17:42;4.20;99.90
33739;DHT22;20063;51.730;11.110;2023-02-15T19:20:23;4.30;99.90